Time;durP1;ratioP1;P1;durP2;ratioP2;P2;SDS_P1;SDS_P2;PMS_P1;PMS_P2;Temp;Humidity;BMP_temperature;BMP_pressure;BME280_temperature;BME280_humidity;BME280_pressure;Samples;Min_cycle;Max_cycle;Signal;HPM_P1;HPM_P2
2021/10/28 00:15:26;;;;;;;0.93;0.00;;;;;;;;;;5097478;28;20498;-58
2021/10/28 00:20:26;;;;;;;0.98;0.20;;;;;;;;;;5093281;28;20027;-58
2021/10/28 00:22:52;;;;;;;1.45;0.00;;;;;;;;;;5079622;28;20020;-59
2021/10/28 00:25:17;;;;;;;1.55;0.00;;;;;;;;;;5097475;28;20046;-58
2021/10/28 00:27:43;;;;;;;0.00;0.00;;;;;;;;;;5100443;27;20122;-58
2021/10/28 00:30:09;;;;;;;0.38;0.00;;;;;;;;;;5093880;27;20027;-58
2021/10/28 00:32:35;;;;;;;0.10;0.00;;;;;;;;;;5099538;28;20050;-59
2021/10/28 00:35:01;;;;;;;0.30;0.00;;;;;;;;;;5097113;28;20039;-58
2021/10/28 00:37:27;;;;;;;1.70;0.10;;;;;;;;;;5097090;28;20031;-58
2021/10/28 00:39:53;;;;;;;1.17;0.00;;;;;;;;;;5096543;28;20043;-58
2021/10/28 00:42:19;;;;;;;0.30;0.00;;;;;;;;;;5102196;28;20035;-58
2021/10/28 00:44:46;;;;;;;0.05;0.00;;;;;;;;;;5097346;28;20456;-58
2021/10/28 00:47:12;;;;;;;0.13;0.00;;;;;;;;;;5099301;28;20035;-58
2021/10/28 00:49:37;;;;;;;0.03;0.00;;;;;;;;;;5089076;28;20486;-58
2021/10/28 00:52:03;;;;;;;0.82;0.00;;;;;;;;;;5087925;28;20055;-57
2021/10/28 00:54:29;;;;;;;0.25;0.00;;;;;;;;;;5097476;28;20039;-58
2021/10/28 00:56:56;;;;;;;0.08;0.00;;;;;;;;;;5095518;28;20436;-58
2021/10/28 00:59:21;;;;;;;0.10;0.00;;;;;;;;;;5094134;28;20027;-58
2021/10/28 01:01:47;;;;;;;0.40;0.00;;;;;;;;;;5097733;28;20032;-58
2021/10/28 01:04:13;;;;;;;2.55;0.00;;;;;;;;;;5097647;28;20074;-58
2021/10/28 01:06:39;;;;;;;0.25;0.00;;;;;;;;;;5097918;28;20379;-58
2021/10/28 01:09:06;;;;;;;0.30;0.00;;;;;;;;;;5092651;28;20093;-58
2021/10/28 01:11:32;;;;;;;0.85;0.00;;;;;;;;;;5093139;28;20030;-58
2021/10/28 01:14:00;;;;;;;0.08;0.00;;;;;;;;;;5093460;28;20031;-58
2021/10/28 01:16:26;;;;;;;0.30;0.00;;;;;;;;;;5097819;28;20088;-58
2021/10/28 01:18:52;;;;;;;2.17;0.00;;;;;;;;;;5094984;28;20054;-59
2021/10/28 01:21:18;;;;;;;0.73;0.00;;;;;;;;;;5095811;28;20059;-58
2021/10/28 01:23:44;;;;;;;0.73;0.00;;;;;;;;;;5097784;28;20085;-58
2021/10/28 01:26:13;;;;;;;18.83;0.43;;;;;;;;;;5094795;28;20142;-58
2021/10/28 01:28:48;;;;;;;1.30;0.08;;;;;;;;;;5097956;28;20395;-58
2021/10/28 01:31:14;;;;;;;0.00;0.00;;;;;;;;;;5095532;28;20527;-58
2021/10/28 01:33:40;;;;;;;0.40;0.00;;;;;;;;;;5093770;28;20059;-58
2021/10/28 01:36:07;;;;;;;0.10;0.00;;;;;;;;;;5093550;28;20085;-58
2021/10/28 01:38:36;;;;;;;2.92;0.10;;;;;;;;;;5096394;28;20024;-58
2021/10/28 01:41:04;;;;;;;0.43;0.03;;;;;;;;;;5095431;28;20034;-58
2021/10/28 01:43:32;;;;;;;3.78;0.10;;;;;;;;;;5093497;28;20111;-58
2021/10/28 01:45:58;;;;;;;1.75;0.10;;;;;;;;;;5091672;28;20030;-58
2021/10/28 01:48:25;;;;;;;1.08;0.10;;;;;;;;;;5090935;28;20028;-58
2021/10/28 01:50:51;;;;;;;0.47;0.08;;;;;;;;;;5091251;28;20459;-58
2021/10/28 01:53:18;;;;;;;2.72;0.10;;;;;;;;;;5099423;28;20031;-58
2021/10/28 01:55:45;;;;;;;0.70;0.40;;;;;;;;;;5095039;28;20428;-57
2021/10/28 01:58:11;;;;;;;0.08;0.00;;;;;;;;;;5092418;28;20105;-58
2021/10/28 02:00:38;;;;;;;0.00;0.00;;;;;;;;;;5102832;28;20470;-59
2021/10/28 02:03:03;;;;;;;1.42;0.00;;;;;;;;;;5095595;28;20040;-58
2021/10/28 02:05:29;;;;;;;0.15;0.00;;;;;;;;;;5098107;28;20049;-58
2021/10/28 02:07:55;;;;;;;0.82;0.00;;;;;;;;;;5094100;28;20119;-58
2021/10/28 02:10:20;;;;;;;1.60;0.00;;;;;;;;;;5101056;28;20624;-59
2021/10/28 02:12:48;;;;;;;0.10;0.00;;;;;;;;;;5096020;28;20031;-58
2021/10/28 02:15:16;;;;;;;0.80;0.00;;;;;;;;;;5092494;28;20123;-58
2021/10/28 02:17:42;;;;;;;3.20;0.10;;;;;;;;;;5097914;28;20107;-58
2021/10/28 02:20:11;;;;;;;0.50;0.00;;;;;;;;;;5093818;28;20427;-58
2021/10/28 02:22:37;;;;;;;0.10;0.00;;;;;;;;;;5096333;28;20074;-58
2021/10/28 02:25:05;;;;;;;0.30;0.00;;;;;;;;;;5091748;28;20558;-58
2021/10/28 02:27:31;;;;;;;0.10;0.03;;;;;;;;;;5094682;28;20512;-58
2021/10/28 02:29:57;;;;;;;3.40;0.20;;;;;;;;;;5090674;28;20032;-57
2021/10/28 02:32:23;;;;;;;0.20;0.00;;;;;;;;;;5092527;28;20032;-58
2021/10/28 02:34:49;;;;;;;1.50;0.00;;;;;;;;;;5094616;28;20032;-58
2021/10/28 02:37:15;;;;;;;0.00;0.00;;;;;;;;;;5095444;28;20092;-58
2021/10/28 02:39:40;;;;;;;0.20;0.00;;;;;;;;;;5090465;28;20113;-58
2021/10/28 02:42:06;;;;;;;0.25;0.00;;;;;;;;;;5091337;28;20043;-58
2021/10/28 02:44:32;;;;;;;0.08;0.00;;;;;;;;;;5094980;28;20032;-58
2021/10/28 02:46:57;;;;;;;1.70;0.10;;;;;;;;;;5091809;28;20032;-57
2021/10/28 02:49:25;;;;;;;0.82;0.47;;;;;;;;;;5096674;28;20039;-58
2021/10/28 02:51:50;;;;;;;1.05;0.28;;;;;;;;;;5095254;28;20027;-57
2021/10/28 02:54:21;;;;;;;0.35;0.00;;;;;;;;;;5096017;28;20508;-57
2021/10/28 02:56:48;;;;;;;1.65;0.13;;;;;;;;;;5093971;28;20444;-57
2021/10/28 02:59:14;;;;;;;1.55;0.15;;;;;;;;;;5094511;28;20038;-57
2021/10/28 03:01:44;;;;;;;1.25;0.30;;;;;;;;;;5090766;28;20032;-57
2021/10/28 03:04:13;;;;;;;3.33;0.40;;;;;;;;;;5096016;28;20112;-57
2021/10/28 03:06:40;;;;;;;5.10;0.55;;;;;;;;;;5094853;28;20031;-57
2021/10/28 03:09:08;;;;;;;3.40;0.10;;;;;;;;;;5094089;28;20641;-57
2021/10/28 03:11:34;;;;;;;6.15;0.43;;;;;;;;;;5089216;28;20036;-57
2021/10/28 03:14:00;;;;;;;6.72;0.40;;;;;;;;;;5091461;28;20015;-57
2021/10/28 03:27:20;;;;;;;4.15;0.50;;;;;;;;;;5091389;28;20035;-57
2021/10/28 03:29:45;;;;;;;4.93;0.38;;;;;;;;;;5101003;28;20394;-57
2021/10/28 03:32:11;;;;;;;0.82;0.20;;;;;;;;;;5093525;28;20032;-57
2021/10/28 03:34:36;;;;;;;4.65;0.38;;;;;;;;;;5093577;28;20036;-57
2021/10/28 03:37:27;;;;;;;3.10;0.30;;;;;;;;;;5098774;28;20082;-57
2021/10/28 04:28:53;;;;;;;4.50;0.35;;;;;;;;;;5098831;28;20434;-57
2021/10/28 04:30:12;;;;;;;3.30;0.40;;;;;;;;;;5091190;28;20530;-57
2021/10/28 04:32:37;;;;;;;2.03;0.43;;;;;;;;;;5094727;28;20024;-57
2021/10/28 04:35:03;;;;;;;1.33;0.20;;;;;;;;;;5077840;28;20062;-57
2021/10/28 04:37:29;;;;;;;4.93;0.50;;;;;;;;;;5095924;28;20032;-57
2021/10/28 04:39:55;;;;;;;1.75;0.30;;;;;;;;;;5082314;28;20054;-57
2021/10/28 04:42:21;;;;;;;9.95;0.50;;;;;;;;;;5092388;28;20028;-56
2021/10/28 04:44:46;;;;;;;2.40;0.30;;;;;;;;;;5095736;28;20027;-58
2021/10/28 04:47:12;;;;;;;5.93;0.35;;;;;;;;;;5095967;28;20039;-57
2021/10/28 04:49:38;;;;;;;3.58;0.60;;;;;;;;;;5093983;28;20031;-58
2021/10/28 04:52:04;;;;;;;2.30;0.63;;;;;;;;;;5078682;28;20486;-57
2021/10/28 04:54:29;;;;;;;4.72;0.35;;;;;;;;;;5096534;28;20117;-57
2021/10/28 04:56:55;;;;;;;8.20;0.88;;;;;;;;;;5091038;28;20075;-58
2021/10/28 04:59:21;;;;;;;4.07;0.30;;;;;;;;;;5091557;28;20036;-57
2021/10/28 05:01:46;;;;;;;2.15;0.40;;;;;;;;;;5095738;28;20487;-57
2021/10/28 05:04:12;;;;;;;7.00;1.38;;;;;;;;;;5093726;28;20028;-57
2021/10/28 05:06:38;;;;;;;3.08;0.40;;;;;;;;;;5091697;28;20032;-57
2021/10/28 05:09:04;;;;;;;7.85;0.50;;;;;;;;;;5093936;28;20031;-58
2021/10/28 05:11:30;;;;;;;5.47;0.50;;;;;;;;;;5099301;28;20088;-57
2021/10/28 05:13:55;;;;;;;2.58;0.28;;;;;;;;;;5097135;28;20425;-56
2021/10/28 05:16:21;;;;;;;4.07;0.32;;;;;;;;;;5097724;28;20024;-57
2021/10/28 05:18:47;;;;;;;4.95;1.05;;;;;;;;;;5095942;28;20039;-57
2021/10/28 05:21:15;;;;;;;1.98;0.52;;;;;;;;;;5099508;28;20032;-57
2021/10/28 05:23:41;;;;;;;4.57;0.20;;;;;;;;;;5095471;28;20024;-57
2021/10/28 05:26:07;;;;;;;2.83;0.35;;;;;;;;;;5092158;28;20058;-57
2021/10/28 05:28:33;;;;;;;3.35;0.40;;;;;;;;;;5097957;28;20034;-56
2021/10/28 05:30:59;;;;;;;4.75;0.25;;;;;;;;;;5089914;28;20028;-57
2021/10/28 05:33:24;;;;;;;4.57;0.40;;;;;;;;;;5091552;28;20035;-56
2021/10/28 05:35:51;;;;;;;2.78;0.20;;;;;;;;;;5096545;28;20032;-56
2021/10/28 05:38:17;;;;;;;5.30;0.40;;;;;;;;;;5094729;28;20065;-57
2021/10/28 05:40:43;;;;;;;4.35;0.38;;;;;;;;;;5094192;28;20038;-56
2021/10/28 05:43:09;;;;;;;1.95;0.35;;;;;;;;;;5078930;28;20835;-57
2021/10/28 05:45:35;;;;;;;3.50;0.30;;;;;;;;;;5088047;28;20031;-57
2021/10/28 05:48:00;;;;;;;1.75;0.22;;;;;;;;;;5091730;28;20507;-61
2021/10/28 05:50:26;;;;;;;5.95;0.30;;;;;;;;;;5096766;28;20067;-57
2021/10/28 05:52:53;;;;;;;3.50;0.50;;;;;;;;;;5099192;28;20031;-57
2021/10/28 05:55:21;;;;;;;4.32;0.32;;;;;;;;;;5093950;28;20077;-57
2021/10/28 05:57:48;;;;;;;2.17;0.40;;;;;;;;;;5093372;28;20035;-60
2021/10/28 06:00:14;;;;;;;6.57;0.47;;;;;;;;;;5091679;28;20027;-57
2021/10/28 06:02:40;;;;;;;2.60;0.40;;;;;;;;;;5096002;28;20022;-58
2021/10/28 06:05:06;;;;;;;3.15;0.95;;;;;;;;;;5096659;28;20027;-57
2021/10/28 06:07:32;;;;;;;10.50;0.57;;;;;;;;;;5095359;28;20154;-57
2021/10/28 06:09:58;;;;;;;2.03;0.50;;;;;;;;;;5095270;28;20030;-57
2021/10/28 06:12:25;;;;;;;2.15;0.30;;;;;;;;;;5093623;28;20040;-58
2021/10/28 06:14:51;;;;;;;2.05;0.30;;;;;;;;;;5092182;28;20134;-57
2021/10/28 06:17:18;;;;;;;5.00;0.60;;;;;;;;;;5094185;28;20064;-58
2021/10/28 06:19:44;;;;;;;3.80;0.60;;;;;;;;;;5098821;28;20042;-58
2021/10/28 06:22:10;;;;;;;5.65;0.57;;;;;;;;;;5092766;28;20036;-57
2021/10/28 06:24:35;;;;;;;4.95;1.65;;;;;;;;;;5093793;28;20038;-57
2021/10/28 06:27:01;;;;;;;3.20;0.70;;;;;;;;;;5076044;28;20040;-58
2021/10/28 06:29:26;;;;;;;6.55;0.70;;;;;;;;;;5094446;28;20517;-58
2021/10/28 06:31:53;;;;;;;2.78;0.90;;;;;;;;;;5091024;28;20028;-57
2021/10/28 06:34:21;;;;;;;4.32;0.88;;;;;;;;;;5099877;28;20115;-56
2021/10/28 06:36:48;;;;;;;6.38;0.85;;;;;;;;;;5095149;28;20023;-57
2021/10/28 06:39:15;;;;;;;3.00;1.33;;;;;;;;;;5095042;28;20024;-57
2021/10/28 06:41:41;;;;;;;9.32;1.65;;;;;;;;;;5092978;28;20043;-56
2021/10/28 06:44:06;;;;;;;9.75;1.50;;;;;;;;;;5092019;28;20036;-56
2021/10/28 06:46:33;;;;;;;7.25;1.77;;;;;;;;;;5092671;28;20097;-58
2021/10/28 06:48:58;;;;;;;3.63;1.60;;;;;;;;;;5097866;28;20044;-58
2021/10/28 06:51:25;;;;;;;9.73;1.55;;;;;;;;;;5096545;28;20409;-58
2021/10/28 06:53:59;;;;;;;6.38;1.50;;;;;;;;;;5092085;28;20028;-58
2021/10/28 06:56:56;;;;;;;5.38;1.38;;;;;;;;;;5097441;28;20055;-57
2021/10/28 07:04:51;;;;;;;3.85;1.52;;;;;;;;;;5094168;28;20042;-58
2021/10/28 07:07:18;;;;;;;4.32;1.55;;;;;;;;;;5093758;28;20028;-58
2021/10/28 07:09:49;;;;;;;4.00;1.55;;;;;;;;;;5096300;28;20421;-58
2021/10/28 07:14:44;;;;;;;4.70;1.58;;;;;;;;;;5096535;28;20265;-57
2021/10/28 07:17:26;;;;;;;7.13;2.42;;;;;;;;;;5094321;28;20120;-57
2021/10/28 07:22:41;;;;;;;7.70;1.60;;;;;;;;;;5097774;28;20125;-55
2021/10/28 07:33:08;;;;;;;7.60;1.85;;;;;;;;;;5105397;27;20113;-58
2021/10/28 07:55:10;;;;;;;9.45;2.03;;;;;;;;;;5098374;28;20173;-58
2021/10/28 08:21:30;;;;;;;;;;;;;;;;;;5093760;28;20032;-60
2021/10/28 08:24:07;;;;;;;12.55;3.05;;;;;;;;;;5097568;28;19926;-58
2021/10/28 08:29:22;;;;;;;9.38;3.15;;;;;;;;;;5090503;28;20131;-58
2021/10/28 08:31:50;;;;;;;13.75;4.30;;;;;;;;;;5100100;28;20392;-58
2021/10/28 08:34:21;;;;;;;12.43;3.08;;;;;;;;;;5078756;28;20042;-58
2021/10/28 08:36:51;;;;;;;13.60;3.15;;;;;;;;;;5095596;28;20023;-58
2021/10/28 08:39:17;;;;;;;13.50;3.60;;;;;;;;;;5092411;27;20050;-58
2021/10/28 08:41:45;;;;;;;8.70;3.25;;;;;;;;;;5095126;27;20143;-58
2021/10/28 08:44:14;;;;;;;5.95;3.00;;;;;;;;;;5101921;27;20117;-58
2021/10/28 08:46:42;;;;;;;5.65;2.90;;;;;;;;;;5094774;28;20035;-58
2021/10/28 08:49:19;;;;;;;8.60;3.30;;;;;;;;;;5096860;28;20036;-58
2021/10/28 08:52:22;;;;;;;9.07;2.78;;;;;;;;;;5097130;28;20023;-58
2021/10/28 09:24:49;;;;;;;7.38;1.67;;;;;;;;;;5091453;28;20109;-58
2021/10/28 09:27:28;;;;;;;5.18;1.75;;;;;;;;;;5093963;28;20044;-58
2021/10/28 09:30:45;;;;;;;2.35;1.13;;;;;;;;;;5095186;28;20063;-58
2021/10/28 09:32:50;;;;;;;6.25;1.38;;;;;;;;;;5081512;28;20035;-59
2021/10/28 09:44:06;;;;;;;4.47;1.17;;;;;;;;;;5095421;28;20499;-58
2021/10/28 09:51:20;;;;;;;3.50;0.70;;;;;;;;;;5094707;28;20032;-59
2021/10/28 09:59:48;;;;;;;5.63;0.90;;;;;;;;;;5102487;28;20043;-62
2021/10/28 10:02:16;;;;;;;5.70;1.05;;;;;;;;;;5098223;28;20486;-62
2021/10/28 10:04:44;;;;;;;9.75;0.98;;;;;;;;;;5092939;28;20028;-61
2021/10/28 10:07:28;;;;;;;1.92;0.80;;;;;;;;;;5097791;28;20047;-62
2021/10/28 10:09:54;;;;;;;8.38;1.05;;;;;;;;;;5093778;28;20138;-61
2021/10/28 10:12:20;;;;;;;3.22;1.10;;;;;;;;;;5093246;28;20558;-61
2021/10/28 10:14:46;;;;;;;5.07;0.98;;;;;;;;;;5088291;28;20073;-62
2021/10/28 10:17:12;;;;;;;1.70;0.77;;;;;;;;;;5094770;28;20079;-62
2021/10/28 10:19:41;;;;;;;2.25;1.25;;;;;;;;;;5101427;28;20032;-62
2021/10/28 10:22:29;;;;;;;9.75;1.27;;;;;;;;;;5099420;28;20035;-62
2021/10/28 11:29:13;;;;;;;0.80;0.30;;;;;;;;;;5096635;28;20039;-62
2021/10/28 12:14:59;;;;;;;3.42;0.40;;;;;;;;;;5095253;28;20474;-58
2021/10/28 12:23:31;;;;;;;1.33;0.10;;;;;;;;;;5101154;27;20043;-58
2021/10/28 12:25:23;;;;;;;5.32;0.20;;;;;;;;;;5091641;28;20042;-58
2021/10/28 12:43:27;;;;;;;;;;;;;;;;;;5103546;27;20120;-58
2021/10/28 12:46:00;;;;;;;0.20;0.00;;;;;;;;;;5102065;28;20034;-58
2021/10/28 13:03:45;;;;;;;0.30;0.10;;;;;;;;;;5093164;28;20422;-58
2021/10/28 13:35:08;;;;;;;2.50;0.50;;;;;;;;;;5102248;27;20098;-59
2021/10/28 14:15:09;;;;;;;3.55;0.60;;;;;;;;;;5072706;28;20108;-59
2021/10/28 14:20:35;;;;;;;6.72;0.50;;;;;;;;;;5093344;28;20040;-58
2021/10/28 14:36:17;;;;;;;13.23;0.85;;;;;;;;;;5098737;28;20442;-58
2021/10/28 15:29:56;;;;;;;8.05;0.82;;;;;;;;;;5104858;28;20079;-58
2021/10/28 15:35:30;;;;;;;8.63;1.10;;;;;;;;;;5096482;28;20045;-59
2021/10/28 15:43:44;;;;;;;8.98;0.75;;;;;;;;;;5099017;28;20096;-59
2021/10/28 15:59:47;;;;;;;12.18;1.75;;;;;;;;;;5097888;28;20038;-60
2021/10/28 16:21:49;;;;;;;6.63;0.63;;;;;;;;;;5084650;28;20034;-58
2021/10/28 16:24:15;;;;;;;11.45;1.63;;;;;;;;;;5094596;28;20024;-59
2021/10/28 16:26:41;;;;;;;7.13;0.80;;;;;;;;;;5095502;28;20028;-59
2021/10/28 16:29:08;;;;;;;12.02;1.00;;;;;;;;;;5097037;28;20061;-59
2021/10/28 16:31:35;;;;;;;13.45;1.05;;;;;;;;;;5099431;28;20043;-60
2021/10/28 16:34:02;;;;;;;4.43;0.45;;;;;;;;;;5097119;28;20012;-59
2021/10/28 16:36:28;;;;;;;7.65;0.70;;;;;;;;;;5096007;28;20015;-59
2021/10/28 16:38:54;;;;;;;10.13;1.13;;;;;;;;;;5096975;28;20468;-58
2021/10/28 16:41:19;;;;;;;14.75;1.20;;;;;;;;;;5096225;28;20039;-59
2021/10/28 16:43:45;;;;;;;5.03;1.10;;;;;;;;;;5091766;28;20028;-59
2021/10/28 16:46:11;;;;;;;4.60;1.02;;;;;;;;;;5100235;28;20509;-59
2021/10/28 16:48:37;;;;;;;7.95;1.30;;;;;;;;;;5095044;28;20090;-59
2021/10/28 16:51:04;;;;;;;15.52;1.40;;;;;;;;;;5094352;28;20539;-59
2021/10/28 16:53:30;;;;;;;14.82;1.15;;;;;;;;;;5103430;28;20008;-58
2021/10/28 16:55:55;;;;;;;13.90;1.73;;;;;;;;;;5091374;28;20087;-59
2021/10/28 16:58:21;;;;;;;12.40;1.00;;;;;;;;;;5093488;28;20040;-58
2021/10/28 17:00:50;;;;;;;8.95;1.33;;;;;;;;;;5093246;28;20036;-59
2021/10/28 17:03:16;;;;;;;8.57;2.30;;;;;;;;;;5092384;28;20040;-58
2021/10/28 17:05:44;;;;;;;13.73;2.40;;;;;;;;;;5096923;28;20482;-59
2021/10/28 17:08:09;;;;;;;12.68;1.48;;;;;;;;;;5099297;28;20031;-59
2021/10/28 17:10:35;;;;;;;8.52;1.10;;;;;;;;;;5094878;28;20032;-58
2021/10/28 17:13:01;;;;;;;20.15;2.17;;;;;;;;;;5095568;28;20030;-57
2021/10/28 17:15:26;;;;;;;9.52;1.33;;;;;;;;;;5079518;28;20039;-57
2021/10/28 17:17:52;;;;;;;12.90;1.10;;;;;;;;;;5093866;28;20024;-57
2021/10/28 17:20:19;;;;;;;8.88;1.05;;;;;;;;;;5091436;28;20051;-57
2021/10/28 17:22:44;;;;;;;12.43;1.40;;;;;;;;;;5094400;28;20028;-58
2021/10/28 17:25:17;;;;;;;16.30;1.77;;;;;;;;;;5106340;28;20035;-58
2021/10/28 17:27:45;;;;;;;10.50;1.20;;;;;;;;;;5094373;28;20035;-57
2021/10/28 17:30:13;;;;;;;9.50;1.08;;;;;;;;;;5092927;28;20028;-57
2021/10/28 17:32:42;;;;;;;9.63;1.02;;;;;;;;;;5094073;28;20026;-60
2021/10/28 17:35:09;;;;;;;13.13;1.27;;;;;;;;;;5090844;28;20028;-59
2021/10/28 17:37:34;;;;;;;11.38;2.03;;;;;;;;;;5096775;28;20027;-59
2021/10/28 17:40:01;;;;;;;9.27;1.38;;;;;;;;;;5091643;28;20508;-59
2021/10/28 17:42:26;;;;;;;13.82;1.17;;;;;;;;;;5090443;28;20023;-59
2021/10/28 17:44:56;;;;;;;8.90;0.88;;;;;;;;;;5093100;28;20104;-59
2021/10/28 17:47:25;;;;;;;14.32;1.10;;;;;;;;;;5091162;28;20093;-59
2021/10/28 17:49:52;;;;;;;12.10;1.65;;;;;;;;;;5093809;28;20403;-59
2021/10/28 17:52:18;;;;;;;14.32;2.00;;;;;;;;;;5095590;28;20482;-58
2021/10/28 17:54:45;;;;;;;10.68;1.77;;;;;;;;;;5097097;28;20083;-59
2021/10/28 17:57:12;;;;;;;6.20;1.55;;;;;;;;;;5092954;28;20519;-59
2021/10/28 17:59:38;;;;;;;5.97;1.95;;;;;;;;;;5081415;28;20119;-59
2021/10/28 18:02:04;;;;;;;5.50;1.88;;;;;;;;;;5097980;28;20462;-59
2021/10/28 18:04:31;;;;;;;8.48;2.28;;;;;;;;;;5091508;28;20035;-58
2021/10/28 18:06:57;;;;;;;7.90;2.42;;;;;;;;;;5096643;28;20399;-58
2021/10/28 18:09:26;;;;;;;4.90;1.17;;;;;;;;;;5098479;28;20031;-59
2021/10/28 18:11:54;;;;;;;4.20;0.70;;;;;;;;;;5077104;28;20390;-59
2021/10/28 18:14:21;;;;;;;4.00;0.50;;;;;;;;;;5094566;28;20024;-59
2021/10/28 18:16:46;;;;;;;4.18;0.88;;;;;;;;;;5096960;28;20058;-59
2021/10/28 18:19:12;;;;;;;3.05;1.00;;;;;;;;;;5096617;28;20447;-60
2021/10/28 18:21:41;;;;;;;3.40;0.98;;;;;;;;;;5090436;28;20039;-60
2021/10/28 18:24:07;;;;;;;4.97;1.60;;;;;;;;;;5096402;28;20489;-60
2021/10/28 18:26:32;;;;;;;5.03;1.30;;;;;;;;;;5091616;28;20103;-61
2021/10/28 18:28:58;;;;;;;6.53;1.80;;;;;;;;;;5097560;28;20031;-60
2021/10/28 18:31:28;;;;;;;4.65;1.92;;;;;;;;;;5088346;28;20044;-60
2021/10/28 18:33:56;;;;;;;7.28;1.60;;;;;;;;;;5092596;28;20074;-60
2021/10/28 18:36:22;;;;;;;5.57;1.70;;;;;;;;;;5097044;28;20032;-60
2021/10/28 18:38:49;;;;;;;5.50;2.00;;;;;;;;;;5092977;28;20492;-60
2021/10/28 18:41:16;;;;;;;4.63;1.80;;;;;;;;;;5095859;28;20036;-58
2021/10/28 18:43:43;;;;;;;8.00;1.95;;;;;;;;;;5094978;28;20478;-60
2021/10/28 18:46:10;;;;;;;11.35;2.42;;;;;;;;;;5101487;28;20485;-60
2021/10/28 18:48:36;;;;;;;3.28;1.50;;;;;;;;;;5097047;28;20020;-60
2021/10/28 18:51:02;;;;;;;5.05;2.00;;;;;;;;;;5089604;28;20123;-60
2021/10/28 18:53:28;;;;;;;8.10;2.28;;;;;;;;;;5093788;28;20032;-60
2021/10/28 18:55:54;;;;;;;6.13;2.53;;;;;;;;;;5100715;28;20083;-60
2021/10/28 18:58:20;;;;;;;5.38;2.47;;;;;;;;;;5099412;28;20110;-59
2021/10/28 19:00:48;;;;;;;8.18;2.95;;;;;;;;;;5105327;27;20027;-60
2021/10/28 19:03:15;;;;;;;7.53;3.30;;;;;;;;;;5099100;28;20036;-60
2021/10/28 19:05:41;;;;;;;9.15;4.00;;;;;;;;;;5098999;28;20036;-60
2021/10/28 19:08:06;;;;;;;14.35;3.72;;;;;;;;;;5101092;28;20076;-60
2021/10/28 19:10:32;;;;;;;7.43;2.75;;;;;;;;;;5081877;28;20035;-61
2021/10/28 19:12:58;;;;;;;7.95;2.78;;;;;;;;;;5100903;28;20032;-60
2021/10/28 19:15:23;;;;;;;6.53;2.65;;;;;;;;;;5097072;28;20024;-60
2021/10/28 19:17:51;;;;;;;4.88;2.58;;;;;;;;;;5097866;28;20076;-60
2021/10/28 19:20:17;;;;;;;4.25;2.05;;;;;;;;;;5094210;27;20435;-59
2021/10/28 19:22:42;;;;;;;12.75;2.15;;;;;;;;;;5094797;28;20127;-60
2021/10/28 19:25:09;;;;;;;3.92;1.85;;;;;;;;;;5101832;28;20121;-60
2021/10/28 19:27:35;;;;;;;6.38;1.75;;;;;;;;;;5096377;28;20032;-59
2021/10/28 19:30:12;;;;;;;5.15;1.92;;;;;;;;;;5098818;28;20063;-60
2021/10/28 19:32:38;;;;;;;7.18;1.92;;;;;;;;;;5102134;28;20097;-60
2021/10/28 19:35:05;;;;;;;7.30;2.00;;;;;;;;;;5101083;28;20035;-59
2021/10/28 19:37:42;;;;;;;6.63;2.45;;;;;;;;;;5097049;27;20524;-60
2021/10/28 19:40:23;;;;;;;7.65;2.28;;;;;;;;;;5098614;28;20047;-60
2021/10/28 19:47:59;;;;;;;6.50;2.97;;;;;;;;;;5104562;28;20137;-60
2021/10/28 19:50:26;;;;;;;8.10;3.20;;;;;;;;;;5103192;27;20035;-60
2021/10/28 19:52:51;;;;;;;10.43;3.15;;;;;;;;;;5099328;27;20070;-60
2021/10/28 19:55:18;;;;;;;10.95;3.67;;;;;;;;;;5104662;28;20067;-59
2021/10/28 19:57:50;;;;;;;7.28;2.70;;;;;;;;;;5100949;28;20043;-60
2021/10/28 20:00:26;;;;;;;6.47;3.22;;;;;;;;;;5098127;28;20035;-61
2021/10/28 20:13:25;;;;;;;6.68;2.90;;;;;;;;;;5052620;28;20122;-60
2021/10/28 20:21:18;;;;;;;8.32;3.00;;;;;;;;;;5094460;28;20460;-60
2021/10/28 20:23:44;;;;;;;6.88;2.75;;;;;;;;;;5092752;28;20028;-60
2021/10/28 20:26:10;;;;;;;10.43;3.05;;;;;;;;;;5095789;28;20032;-60
2021/10/28 20:28:40;;;;;;;7.55;3.00;;;;;;;;;;5103707;28;20390;-60
2021/10/28 20:31:10;;;;;;;4.07;2.45;;;;;;;;;;5097918;28;20506;-60
2021/10/28 20:33:43;;;;;;;8.80;3.08;;;;;;;;;;5096215;27;20072;-60
2021/10/28 20:38:51;;;;;;;10.63;3.30;;;;;;;;;;5099669;28;20028;-59
2021/10/28 20:41:17;;;;;;;8.65;3.38;;;;;;;;;;5097069;28;20050;-60
2021/10/28 20:43:43;;;;;;;8.93;3.28;;;;;;;;;;5094204;28;20024;-60
2021/10/28 20:46:09;;;;;;;11.48;3.35;;;;;;;;;;5095574;28;20466;-59
2021/10/28 20:48:40;;;;;;;5.07;3.10;;;;;;;;;;5092656;28;20125;-59
2021/10/28 20:51:07;;;;;;;14.30;3.65;;;;;;;;;;5095299;28;20101;-60
2021/10/28 20:53:33;;;;;;;8.45;2.72;;;;;;;;;;5096275;28;20024;-59
2021/10/28 20:55:59;;;;;;;6.10;2.90;;;;;;;;;;5094776;28;20067;-61
2021/10/28 20:58:24;;;;;;;8.27;3.65;;;;;;;;;;5099413;28;20131;-60
2021/10/28 21:00:50;;;;;;;8.98;3.28;;;;;;;;;;5103884;28;20042;-60
2021/10/28 21:03:15;;;;;;;9.98;3.70;;;;;;;;;;5091511;28;20043;-60
2021/10/28 21:05:41;;;;;;;11.55;4.35;;;;;;;;;;5102222;27;20039;-60
2021/10/28 21:08:07;;;;;;;10.00;4.20;;;;;;;;;;5103408;27;20061;-59
2021/10/28 21:10:33;;;;;;;10.07;4.30;;;;;;;;;;5099600;27;20024;-60
2021/10/28 21:12:59;;;;;;;10.10;4.43;;;;;;;;;;5101182;27;20409;-60
2021/10/28 21:15:26;;;;;;;10.60;4.50;;;;;;;;;;5098458;27;20113;-59
2021/10/28 21:17:52;;;;;;;13.88;4.68;;;;;;;;;;5104935;27;20031;-60
2021/10/28 21:20:17;;;;;;;12.20;4.97;;;;;;;;;;5097999;27;20036;-59
2021/10/28 21:22:43;;;;;;;12.43;4.82;;;;;;;;;;5100487;27;20409;-60
2021/10/28 21:25:10;;;;;;;10.50;4.93;;;;;;;;;;5104952;27;20031;-60
2021/10/28 21:27:36;;;;;;;10.15;4.95;;;;;;;;;;5103991;27;20529;-60
2021/10/28 21:30:06;;;;;;;9.27;4.97;;;;;;;;;;5097542;27;20027;-60
2021/10/28 21:32:32;;;;;;;12.13;5.55;;;;;;;;;;5104059;27;20067;-60
2021/10/28 21:34:58;;;;;;;10.07;4.97;;;;;;;;;;5081927;28;20491;-60
2021/10/28 21:37:24;;;;;;;13.13;6.03;;;;;;;;;;5089448;28;20035;-60
2021/10/28 21:39:54;;;;;;;9.50;5.57;;;;;;;;;;5102730;28;20039;-60
2021/10/28 21:42:22;;;;;;;21.23;6.32;;;;;;;;;;5092752;28;20032;-59
2021/10/28 21:44:48;;;;;;;14.50;6.53;;;;;;;;;;5093026;28;20032;-58
2021/10/28 21:47:16;;;;;;;15.88;6.10;;;;;;;;;;5092200;28;20096;-61
2021/10/28 21:49:41;;;;;;;8.10;4.95;;;;;;;;;;5089503;28;20024;-59
2021/10/28 21:52:15;;;;;;;8.90;4.93;;;;;;;;;;5094709;28;20058;-59
2021/10/28 21:54:51;;;;;;;11.65;4.35;;;;;;;;;;5095048;27;20528;-59
2021/10/28 22:02:45;;;;;;;11.50;4.65;;;;;;;;;;5092854;28;20023;-60
2021/10/28 22:26:46;;;;;;;15.13;6.95;;;;;;;;;;5092545;28;20047;-60
2021/10/28 22:29:12;;;;;;;19.55;7.80;;;;;;;;;;5093189;28;20410;-60
2021/10/28 22:31:38;;;;;;;16.02;7.80;;;;;;;;;;5094763;28;20069;-61
2021/10/28 22:34:03;;;;;;;17.38;7.88;;;;;;;;;;5098633;28;20055;-60
2021/10/28 22:36:45;;;;;;;14.43;6.28;;;;;;;;;;5092265;28;20464;-60
2021/10/28 22:39:14;;;;;;;14.57;6.55;;;;;;;;;;5079522;28;20494;-60
2021/10/28 22:41:40;;;;;;;14.45;6.85;;;;;;;;;;5096456;28;20040;-59
2021/10/28 22:44:05;;;;;;;12.93;6.40;;;;;;;;;;5098729;28;20118;-60
2021/10/28 22:46:31;;;;;;;14.68;7.35;;;;;;;;;;5094966;28;20031;-59
2021/10/28 22:48:57;;;;;;;12.55;6.32;;;;;;;;;;5098272;28;20396;-60
2021/10/28 22:51:22;;;;;;;12.77;6.80;;;;;;;;;;5090266;28;20035;-59
2021/10/28 22:53:48;;;;;;;14.00;7.20;;;;;;;;;;5093576;28;20061;-60
2021/10/28 22:56:13;;;;;;;13.43;7.28;;;;;;;;;;5099624;28;20062;-59
2021/10/28 22:58:46;;;;;;;12.30;6.38;;;;;;;;;;5102728;28;20391;-59
2021/10/28 23:06:42;;;;;;;14.80;6.70;;;;;;;;;;5092409;28;20498;-59
2021/10/28 23:22:11;;;;;;;14.30;6.97;;;;;;;;;;5093000;28;20071;-59
2021/10/28 23:24:37;;;;;;;15.60;7.35;;;;;;;;;;5094771;28;20047;-60
2021/10/28 23:27:02;;;;;;;12.43;6.75;;;;;;;;;;5097666;28;20062;-59
2021/10/28 23:29:28;;;;;;;11.60;6.32;;;;;;;;;;5087388;28;20043;-59
2021/10/28 23:31:53;;;;;;;15.65;6.95;;;;;;;;;;5092233;28;20430;-60
2021/10/28 23:34:19;;;;;;;14.95;6.50;;;;;;;;;;5096461;28;20019;-60
2021/10/28 23:36:44;;;;;;;18.65;6.90;;;;;;;;;;5087056;28;20451;-58
2021/10/28 23:39:11;;;;;;;15.38;7.45;;;;;;;;;;5096967;28;20114;-60
2021/10/28 23:41:37;;;;;;;13.75;7.32;;;;;;;;;;5095008;28;20023;-60
2021/10/28 23:44:04;;;;;;;15.23;5.95;;;;;;;;;;5094412;28;20457;-60
2021/10/28 23:46:29;;;;;;;10.60;5.65;;;;;;;;;;5103531;28;20171;-59
2021/10/28 23:48:55;;;;;;;13.77;5.90;;;;;;;;;;5100325;28;20587;-59
2021/10/28 23:51:21;;;;;;;14.00;6.40;;;;;;;;;;5097796;28;20031;-60
2021/10/28 23:53:46;;;;;;;13.77;6.05;;;;;;;;;;5102370;28;20028;-58
2021/10/28 23:56:12;;;;;;;13.05;6.50;;;;;;;;;;5104909;28;20047;-60
2021/10/28 23:58:37;;;;;;;13.48;7.20;;;;;;;;;;5095364;28;20198;-60
